sensor_id;sensor_type;location;lat;lon;timestamp;temperature;humidity
77277;DHT22;66330;52.166;9.978;2023-04-25T00:02:24;8.90;69.80
77277;DHT22;66330;52.166;9.978;2023-04-25T00:04:50;8.90;69.00
77277;DHT22;66330;52.166;9.978;2023-04-25T00:07:16;8.90;69.80
77277;DHT22;66330;52.166;9.978;2023-04-25T00:09:42;8.90;69.50
77277;DHT22;66330;52.166;9.978;2023-04-25T00:12:08;8.90;69.20
77277;DHT22;66330;52.166;9.978;2023-04-25T00:14:33;8.80;69.80
77277;DHT22;66330;52.166;9.978;2023-04-25T00:17:00;8.90;69.70
77277;DHT22;66330;52.166;9.978;2023-04-25T00:19:26;8.80;69.80
77277;DHT22;66330;52.166;9.978;2023-04-25T00:21:56;8.80;69.80
77277;DHT22;66330;52.166;9.978;2023-04-25T00:24:22;8.80;69.60
77277;DHT22;66330;52.166;9.978;2023-04-25T00:26:48;8.90;69.10
77277;DHT22;66330;52.166;9.978;2023-04-25T00:29:14;8.80;69.50
77277;DHT22;66330;52.166;9.978;2023-04-25T00:31:39;8.70;69.40
77277;DHT22;66330;52.166;9.978;2023-04-25T00:34:06;8.90;69.60
77277;DHT22;66330;52.166;9.978;2023-04-25T00:36:33;8.80;69.00
77277;DHT22;66330;52.166;9.978;2023-04-25T00:38:59;8.70;68.50
77277;DHT22;66330;52.166;9.978;2023-04-25T00:41:25;8.80;69.40
77277;DHT22;66330;52.166;9.978;2023-04-25T00:43:52;8.70;68.40
77277;DHT22;66330;52.166;9.978;2023-04-25T00:46:19;8.70;69.40
77277;DHT22;66330;52.166;9.978;2023-04-25T00:48:44;8.70;69.50
77277;DHT22;66330;52.166;9.978;2023-04-25T00:51:15;8.70;69.50
77277;DHT22;66330;52.166;9.978;2023-04-25T00:53:41;8.60;69.60
77277;DHT22;66330;52.166;9.978;2023-04-25T00:56:07;8.50;69.70
77277;DHT22;66330;52.166;9.978;2023-04-25T00:58:33;8.50;69.90
77277;DHT22;66330;52.166;9.978;2023-04-25T01:00:58;8.40;69.70
77277;DHT22;66330;52.166;9.978;2023-04-25T01:03:25;8.50;70.80
77277;DHT22;66330;52.166;9.978;2023-04-25T01:05:54;9.00;70.90
77277;DHT22;66330;52.166;9.978;2023-04-25T01:08:22;8.60;70.30
77277;DHT22;66330;52.166;9.978;2023-04-25T01:10:48;8.60;70.10
77277;DHT22;66330;52.166;9.978;2023-04-25T01:13:14;8.60;70.50
77277;DHT22;66330;52.166;9.978;2023-04-25T01:15:40;8.50;69.70
77277;DHT22;66330;52.166;9.978;2023-04-25T01:18:06;8.60;70.60
77277;DHT22;66330;52.166;9.978;2023-04-25T01:20:33;8.60;70.60
77277;DHT22;66330;52.166;9.978;2023-04-25T01:22:58;8.60;70.70
77277;DHT22;66330;52.166;9.978;2023-04-25T01:25:25;8.60;70.70
77277;DHT22;66330;52.166;9.978;2023-04-25T01:27:51;8.60;70.70
77277;DHT22;66330;52.166;9.978;2023-04-25T01:30:17;8.60;70.90
77277;DHT22;66330;52.166;9.978;2023-04-25T01:32:43;8.60;70.90
77277;DHT22;66330;52.166;9.978;2023-04-25T01:35:10;8.50;70.80
77277;DHT22;66330;52.166;9.978;2023-04-25T01:37:40;8.60;70.30
77277;DHT22;66330;52.166;9.978;2023-04-25T01:40:07;8.60;71.10
77277;DHT22;66330;52.166;9.978;2023-04-25T01:42:34;8.60;71.20
77277;DHT22;66330;52.166;9.978;2023-04-25T01:45:00;8.60;70.80
77277;DHT22;66330;52.166;9.978;2023-04-25T01:47:26;8.60;71.40
77277;DHT22;66330;52.166;9.978;2023-04-25T01:49:52;8.60;71.40
77277;DHT22;66330;52.166;9.978;2023-04-25T01:52:17;8.60;71.60
77277;DHT22;66330;52.166;9.978;2023-04-25T01:54:43;8.60;71.60
77277;DHT22;66330;52.166;9.978;2023-04-25T01:57:13;8.60;71.70
77277;DHT22;66330;52.166;9.978;2023-04-25T01:59:39;8.40;71.50
77277;DHT22;66330;52.166;9.978;2023-04-25T02:02:05;8.60;72.50
77277;DHT22;66330;52.166;9.978;2023-04-25T02:04:31;8.60;72.00
77277;DHT22;66330;52.166;9.978;2023-04-25T02:06:57;8.60;71.80
77277;DHT22;66330;52.166;9.978;2023-04-25T02:09:23;8.60;71.70
77277;DHT22;66330;52.166;9.978;2023-04-25T02:11:48;8.60;72.10
77277;DHT22;66330;52.166;9.978;2023-04-25T02:14:14;8.60;72.10
77277;DHT22;66330;52.166;9.978;2023-04-25T02:16:40;8.60;72.20
77277;DHT22;66330;52.166;9.978;2023-04-25T02:19:05;8.60;72.20
77277;DHT22;66330;52.166;9.978;2023-04-25T02:21:31;8.60;72.40
77277;DHT22;66330;52.166;9.978;2023-04-25T02:23:57;8.60;72.10
77277;DHT22;66330;52.166;9.978;2023-04-25T02:26:23;8.60;72.10
77277;DHT22;66330;52.166;9.978;2023-04-25T02:28:50;8.60;72.60
77277;DHT22;66330;52.166;9.978;2023-04-25T02:31:16;8.60;72.30
77277;DHT22;66330;52.166;9.978;2023-04-25T02:33:42;8.60;72.60
77277;DHT22;66330;52.166;9.978;2023-04-25T02:36:07;8.50;72.70
77277;DHT22;66330;52.166;9.978;2023-04-25T02:38:33;8.50;73.00
77277;DHT22;66330;52.166;9.978;2023-04-25T02:40:59;8.50;73.20
77277;DHT22;66330;52.166;9.978;2023-04-25T02:43:24;8.40;73.70
77277;DHT22;66330;52.166;9.978;2023-04-25T02:45:50;8.30;73.00
77277;DHT22;66330;52.166;9.978;2023-04-25T02:48:15;8.20;74.50
77277;DHT22;66330;52.166;9.978;2023-04-25T02:50:41;7.90;73.90
77277;DHT22;66330;52.166;9.978;2023-04-25T02:53:07;8.00;75.40
77277;DHT22;66330;52.166;9.978;2023-04-25T02:55:33;8.00;76.10
77277;DHT22;66330;52.166;9.978;2023-04-25T02:57:58;8.10;76.70
77277;DHT22;66330;52.166;9.978;2023-04-25T03:00:24;7.90;76.70
77277;DHT22;66330;52.166;9.978;2023-04-25T03:02:51;8.10;77.30
77277;DHT22;66330;52.166;9.978;2023-04-25T03:05:17;7.90;77.50
77277;DHT22;66330;52.166;9.978;2023-04-25T03:07:43;7.80;77.70
77277;DHT22;66330;52.166;9.978;2023-04-25T03:10:10;8.50;78.60
77277;DHT22;66330;52.166;9.978;2023-04-25T03:12:36;7.80;78.00
77277;DHT22;66330;52.166;9.978;2023-04-25T03:15:02;7.80;79.20
77277;DHT22;66330;52.166;9.978;2023-04-25T03:17:27;7.80;78.70
77277;DHT22;66330;52.166;9.978;2023-04-25T03:19:54;7.70;78.80
77277;DHT22;66330;52.166;9.978;2023-04-25T03:22:20;7.70;78.80
77277;DHT22;66330;52.166;9.978;2023-04-25T03:24:46;7.70;78.30
77277;DHT22;66330;52.166;9.978;2023-04-25T03:27:12;7.50;78.70
77277;DHT22;66330;52.166;9.978;2023-04-25T03:29:38;7.50;77.80
77277;DHT22;66330;52.166;9.978;2023-04-25T03:32:03;7.40;79.00
77277;DHT22;66330;52.166;9.978;2023-04-25T03:34:29;7.40;79.20
77277;DHT22;66330;52.166;9.978;2023-04-25T03:36:55;7.40;78.90
77277;DHT22;66330;52.166;9.978;2023-04-25T03:39:20;7.50;79.70
77277;DHT22;66330;52.166;9.978;2023-04-25T03:41:46;7.80;80.50
77277;DHT22;66330;52.166;9.978;2023-04-25T03:44:11;7.40;79.70
77277;DHT22;66330;52.166;9.978;2023-04-25T03:46:37;7.20;79.60
77277;DHT22;66330;52.166;9.978;2023-04-25T03:49:02;7.30;79.80
77277;DHT22;66330;52.166;9.978;2023-04-25T03:51:28;7.30;79.80
77277;DHT22;66330;52.166;9.978;2023-04-25T03:53:54;7.30;79.80
77277;DHT22;66330;52.166;9.978;2023-04-25T03:56:19;7.30;79.70
77277;DHT22;66330;52.166;9.978;2023-04-25T03:58:46;7.30;79.80
77277;DHT22;66330;52.166;9.978;2023-04-25T04:01:11;7.40;79.20
77277;DHT22;66330;52.166;9.978;2023-04-25T04:03:37;7.40;79.50
77277;DHT22;66330;52.166;9.978;2023-04-25T04:06:03;7.40;80.20
77277;DHT22;66330;52.166;9.978;2023-04-25T04:08:31;7.40;80.30
77277;DHT22;66330;52.166;9.978;2023-04-25T04:10:57;7.30;80.00
77277;DHT22;66330;52.166;9.978;2023-04-25T04:13:25;7.50;79.90
77277;DHT22;66330;52.166;9.978;2023-04-25T04:15:50;7.50;80.10
77277;DHT22;66330;52.166;9.978;2023-04-25T04:18:16;7.50;80.30
77277;DHT22;66330;52.166;9.978;2023-04-25T04:20:41;7.50;80.30
77277;DHT22;66330;52.166;9.978;2023-04-25T04:23:07;7.50;80.30
77277;DHT22;66330;52.166;9.978;2023-04-25T04:25:32;7.60;80.30
77277;DHT22;66330;52.166;9.978;2023-04-25T04:27:59;7.60;80.40
77277;DHT22;66330;52.166;9.978;2023-04-25T04:30:26;7.60;80.10
77277;DHT22;66330;52.166;9.978;2023-04-25T04:32:55;7.60;80.10
77277;DHT22;66330;52.166;9.978;2023-04-25T04:35:21;7.60;80.00
77277;DHT22;66330;52.166;9.978;2023-04-25T04:37:47;7.40;79.90
77277;DHT22;66330;52.166;9.978;2023-04-25T04:40:13;7.50;80.10
77277;DHT22;66330;52.166;9.978;2023-04-25T04:42:41;7.60;80.00
77277;DHT22;66330;52.166;9.978;2023-04-25T04:45:07;7.50;79.80
77277;DHT22;66330;52.166;9.978;2023-04-25T04:47:33;7.60;79.80
77277;DHT22;66330;52.166;9.978;2023-04-25T04:49:59;7.70;79.90
77277;DHT22;66330;52.166;9.978;2023-04-25T04:52:25;7.70;79.90
77277;DHT22;66330;52.166;9.978;2023-04-25T04:54:50;7.70;79.80
77277;DHT22;66330;52.166;9.978;2023-04-25T04:57:16;7.70;79.70
77277;DHT22;66330;52.166;9.978;2023-04-25T04:59:42;7.80;79.60
77277;DHT22;66330;52.166;9.978;2023-04-25T05:02:07;7.80;79.20
77277;DHT22;66330;52.166;9.978;2023-04-25T05:04:33;7.60;78.60
77277;DHT22;66330;52.166;9.978;2023-04-25T05:06:58;7.80;78.80
77277;DHT22;66330;52.166;9.978;2023-04-25T05:09:24;7.80;79.20
77277;DHT22;66330;52.166;9.978;2023-04-25T05:11:51;7.80;79.10
77277;DHT22;66330;52.166;9.978;2023-04-25T05:14:17;7.90;79.00
77277;DHT22;66330;52.166;9.978;2023-04-25T05:16:43;7.90;78.80
77277;DHT22;66330;52.166;9.978;2023-04-25T05:19:09;7.90;78.40
77277;DHT22;66330;52.166;9.978;2023-04-25T05:21:35;8.00;77.70
77277;DHT22;66330;52.166;9.978;2023-04-25T05:24:01;8.00;78.30
77277;DHT22;66330;52.166;9.978;2023-04-25T05:26:26;8.00;78.10
77277;DHT22;66330;52.166;9.978;2023-04-25T05:28:56;8.00;77.90
77277;DHT22;66330;52.166;9.978;2023-04-25T05:31:22;7.90;77.90
77277;DHT22;66330;52.166;9.978;2023-04-25T05:33:47;8.00;77.60
77277;DHT22;66330;52.166;9.978;2023-04-25T05:36:13;7.90;77.50
77277;DHT22;66330;52.166;9.978;2023-04-25T05:38:38;8.00;77.10
77277;DHT22;66330;52.166;9.978;2023-04-25T05:41:04;8.00;77.20
77277;DHT22;66330;52.166;9.978;2023-04-25T05:43:30;8.00;76.90
77277;DHT22;66330;52.166;9.978;2023-04-25T05:45:55;8.00;76.20
77277;DHT22;66330;52.166;9.978;2023-04-25T05:48:24;8.00;76.80
77277;DHT22;66330;52.166;9.978;2023-04-25T05:50:50;8.10;75.80
77277;DHT22;66330;52.166;9.978;2023-04-25T05:53:17;8.20;76.80
77277;DHT22;66330;52.166;9.978;2023-04-25T05:55:42;8.20;76.50
77277;DHT22;66330;52.166;9.978;2023-04-25T05:58:08;8.30;76.10
77277;DHT22;66330;52.166;9.978;2023-04-25T06:00:33;8.30;75.90
77277;DHT22;66330;52.166;9.978;2023-04-25T06:02:59;8.40;75.40
77277;DHT22;66330;52.166;9.978;2023-04-25T06:05:25;8.50;75.50
77277;DHT22;66330;52.166;9.978;2023-04-25T06:07:51;9.10;75.20
77277;DHT22;66330;52.166;9.978;2023-04-25T06:10:16;8.60;74.90
77277;DHT22;66330;52.166;9.978;2023-04-25T06:12:42;8.60;74.80
77277;DHT22;66330;52.166;9.978;2023-04-25T06:15:07;8.70;73.70
77277;DHT22;66330;52.166;9.978;2023-04-25T06:17:33;8.90;74.50
77277;DHT22;66330;52.166;9.978;2023-04-25T06:19:59;9.00;74.10
77277;DHT22;66330;52.166;9.978;2023-04-25T06:22:24;8.90;73.50
77277;DHT22;66330;52.166;9.978;2023-04-25T06:24:50;8.90;73.00
77277;DHT22;66330;52.166;9.978;2023-04-25T06:27:15;8.90;71.60
77277;DHT22;66330;52.166;9.978;2023-04-25T06:29:41;8.80;70.40
77277;DHT22;66330;52.166;9.978;2023-04-25T06:32:06;8.80;70.90
77277;DHT22;66330;52.166;9.978;2023-04-25T06:34:32;8.90;72.10
77277;DHT22;66330;52.166;9.978;2023-04-25T06:36:58;8.90;70.50
77277;DHT22;66330;52.166;9.978;2023-04-25T06:39:23;9.00;71.00
77277;DHT22;66330;52.166;9.978;2023-04-25T06:41:50;9.10;70.80
77277;DHT22;66330;52.166;9.978;2023-04-25T06:44:16;9.20;70.70
77277;DHT22;66330;52.166;9.978;2023-04-25T06:46:41;9.40;69.50
77277;DHT22;66330;52.166;9.978;2023-04-25T06:49:07;9.50;69.50
77277;DHT22;66330;52.166;9.978;2023-04-25T06:51:33;9.70;69.00
77277;DHT22;66330;52.166;9.978;2023-04-25T06:53:58;10.20;68.20
77277;DHT22;66330;52.166;9.978;2023-04-25T06:56:24;10.00;67.90
77277;DHT22;66330;52.166;9.978;2023-04-25T06:58:50;10.40;68.60
77277;DHT22;66330;52.166;9.978;2023-04-25T07:01:15;10.70;67.20
77277;DHT22;66330;52.166;9.978;2023-04-25T07:03:41;10.80;65.00
77277;DHT22;66330;52.166;9.978;2023-04-25T07:06:07;11.00;64.40
77277;DHT22;66330;52.166;9.978;2023-04-25T07:08:32;11.20;64.40
77277;DHT22;66330;52.166;9.978;2023-04-25T07:10:58;11.50;63.20
77277;DHT22;66330;52.166;9.978;2023-04-25T07:13:23;11.70;62.70
77277;DHT22;66330;52.166;9.978;2023-04-25T07:15:49;12.00;61.50
77277;DHT22;66330;52.166;9.978;2023-04-25T07:18:14;12.30;61.40
77277;DHT22;66330;52.166;9.978;2023-04-25T07:20:40;12.70;60.50
77277;DHT22;66330;52.166;9.978;2023-04-25T07:23:06;12.90;58.70
77277;DHT22;66330;52.166;9.978;2023-04-25T07:25:32;12.70;56.80
77277;DHT22;66330;52.166;9.978;2023-04-25T07:27:57;12.40;56.20
77277;DHT22;66330;52.166;9.978;2023-04-25T07:30:23;12.30;56.40
77277;DHT22;66330;52.166;9.978;2023-04-25T07:32:49;12.10;55.30
77277;DHT22;66330;52.166;9.978;2023-04-25T07:35:16;11.90;55.40
77277;DHT22;66330;52.166;9.978;2023-04-25T07:37:42;11.80;55.30
77277;DHT22;66330;52.166;9.978;2023-04-25T07:40:07;12.00;55.70
77277;DHT22;66330;52.166;9.978;2023-04-25T07:42:34;12.30;55.80
77277;DHT22;66330;52.166;9.978;2023-04-25T07:45:01;12.70;55.50
77277;DHT22;66330;52.166;9.978;2023-04-25T07:47:26;12.70;54.40
77277;DHT22;66330;52.166;9.978;2023-04-25T07:49:52;12.80;54.20
77277;DHT22;66330;52.166;9.978;2023-04-25T07:52:18;13.20;54.00
77277;DHT22;66330;52.166;9.978;2023-04-25T07:54:44;13.50;53.60
77277;DHT22;66330;52.166;9.978;2023-04-25T07:57:10;13.60;52.40
77277;DHT22;66330;52.166;9.978;2023-04-25T07:59:36;13.50;52.10
77277;DHT22;66330;52.166;9.978;2023-04-25T08:02:01;13.50;51.60
77277;DHT22;66330;52.166;9.978;2023-04-25T08:04:28;13.40;51.60
77277;DHT22;66330;52.166;9.978;2023-04-25T08:06:54;13.30;51.40
77277;DHT22;66330;52.166;9.978;2023-04-25T08:09:20;13.20;51.30
77277;DHT22;66330;52.166;9.978;2023-04-25T08:11:46;13.10;51.00
77277;DHT22;66330;52.166;9.978;2023-04-25T08:14:12;12.80;50.40
77277;DHT22;66330;52.166;9.978;2023-04-25T08:16:38;12.40;50.60
77277;DHT22;66330;52.166;9.978;2023-04-25T08:19:04;12.20;51.00
77277;DHT22;66330;52.166;9.978;2023-04-25T08:21:30;12.00;51.60
77277;DHT22;66330;52.166;9.978;2023-04-25T08:23:57;11.80;52.00
77277;DHT22;66330;52.166;9.978;2023-04-25T08:26:23;11.70;51.90
77277;DHT22;66330;52.166;9.978;2023-04-25T08:28:49;11.70;52.10
77277;DHT22;66330;52.166;9.978;2023-04-25T08:31:15;11.80;52.10
77277;DHT22;66330;52.166;9.978;2023-04-25T08:33:41;11.70;52.10
77277;DHT22;66330;52.166;9.978;2023-04-25T08:36:07;11.80;51.70
77277;DHT22;66330;52.166;9.978;2023-04-25T08:38:32;11.80;51.70
77277;DHT22;66330;52.166;9.978;2023-04-25T08:41:00;11.90;51.70
77277;DHT22;66330;52.166;9.978;2023-04-25T08:43:26;12.00;51.50
77277;DHT22;66330;52.166;9.978;2023-04-25T08:45:59;12.20;51.10
77277;DHT22;66330;52.166;9.978;2023-04-25T08:48:27;12.20;50.50
77277;DHT22;66330;52.166;9.978;2023-04-25T08:50:55;12.20;49.80
77277;DHT22;66330;52.166;9.978;2023-04-25T08:53:24;12.70;50.00
77277;DHT22;66330;52.166;9.978;2023-04-25T08:55:53;12.60;49.40
77277;DHT22;66330;52.166;9.978;2023-04-25T08:58:19;12.80;49.10
77277;DHT22;66330;52.166;9.978;2023-04-25T09:00:49;13.00;49.20
77277;DHT22;66330;52.166;9.978;2023-04-25T09:03:15;13.20;48.40
77277;DHT22;66330;52.166;9.978;2023-04-25T09:05:42;13.50;48.90
77277;DHT22;66330;52.166;9.978;2023-04-25T09:08:07;13.70;48.80
77277;DHT22;66330;52.166;9.978;2023-04-25T09:10:33;14.00;48.10
77277;DHT22;66330;52.166;9.978;2023-04-25T09:15:32;14.70;47.80
77277;DHT22;66330;52.166;9.978;2023-04-25T09:17:59;14.80;46.60
77277;DHT22;66330;52.166;9.978;2023-04-25T09:20:24;14.80;45.10
77277;DHT22;66330;52.166;9.978;2023-04-25T09:23:04;14.60;44.40
77277;DHT22;66330;52.166;9.978;2023-04-25T09:25:34;14.20;44.10
77277;DHT22;66330;52.166;9.978;2023-04-25T09:28:04;13.80;43.90
77277;DHT22;66330;52.166;9.978;2023-04-25T09:30:31;13.60;44.20
77277;DHT22;66330;52.166;9.978;2023-04-25T09:33:04;13.30;44.20
77277;DHT22;66330;52.166;9.978;2023-04-25T09:35:30;12.90;44.40
77277;DHT22;66330;52.166;9.978;2023-04-25T09:38:00;12.50;44.70
77277;DHT22;66330;52.166;9.978;2023-04-25T09:40:26;12.20;45.00
77277;DHT22;66330;52.166;9.978;2023-04-25T09:42:51;12.10;45.70
77277;DHT22;66330;52.166;9.978;2023-04-25T09:45:17;11.90;46.10
77277;DHT22;66330;52.166;9.978;2023-04-25T09:47:43;11.80;46.20
77277;DHT22;66330;52.166;9.978;2023-04-25T09:50:15;11.80;47.10
77277;DHT22;66330;52.166;9.978;2023-04-25T09:52:41;12.10;47.70
77277;DHT22;66330;52.166;9.978;2023-04-25T09:55:07;12.50;48.70
77277;DHT22;66330;52.166;9.978;2023-04-25T09:57:33;13.00;48.30
77277;DHT22;66330;52.166;9.978;2023-04-25T10:00:00;13.40;47.30
77277;DHT22;66330;52.166;9.978;2023-04-25T10:02:27;13.50;46.00
77277;DHT22;66330;52.166;9.978;2023-04-25T10:04:54;13.50;45.20
77277;DHT22;66330;52.166;9.978;2023-04-25T10:07:26;13.50;44.40
77277;DHT22;66330;52.166;9.978;2023-04-25T10:10:01;13.50;44.40
77277;DHT22;66330;52.166;9.978;2023-04-25T10:12:28;13.30;43.80
77277;DHT22;66330;52.166;9.978;2023-04-25T10:14:54;13.50;43.60
77277;DHT22;66330;52.166;9.978;2023-04-25T10:17:20;13.30;43.50
77277;DHT22;66330;52.166;9.978;2023-04-25T10:19:49;13.20;42.70
77277;DHT22;66330;52.166;9.978;2023-04-25T10:22:18;13.10;42.80
77277;DHT22;66330;52.166;9.978;2023-04-25T10:24:46;12.90;42.80
77277;DHT22;66330;52.166;9.978;2023-04-25T10:27:12;12.90;42.60
77277;DHT22;66330;52.166;9.978;2023-04-25T10:29:37;12.90;42.70
77277;DHT22;66330;52.166;9.978;2023-04-25T10:32:04;13.00;42.80
77277;DHT22;66330;52.166;9.978;2023-04-25T10:34:43;13.40;43.50
77277;DHT22;66330;52.166;9.978;2023-04-25T10:37:12;14.00;43.40
77277;DHT22;66330;52.166;9.978;2023-04-25T10:39:39;14.90;43.30
77277;DHT22;66330;52.166;9.978;2023-04-25T10:42:06;15.80;42.80
77277;DHT22;66330;52.166;9.978;2023-04-25T10:44:33;16.40;41.50
77277;DHT22;66330;52.166;9.978;2023-04-25T10:47:00;16.90;41.30
77277;DHT22;66330;52.166;9.978;2023-04-25T10:49:33;17.10;40.30
77277;DHT22;66330;52.166;9.978;2023-04-25T10:54:49;16.40;39.50
77277;DHT22;66330;52.166;9.978;2023-04-25T10:57:41;15.90;39.20
77277;DHT22;66330;52.166;9.978;2023-04-25T11:00:18;15.40;39.30
77277;DHT22;66330;52.166;9.978;2023-04-25T11:02:58;14.70;40.20
77277;DHT22;66330;52.166;9.978;2023-04-25T11:05:34;14.10;40.40
77277;DHT22;66330;52.166;9.978;2023-04-25T11:08:00;13.80;41.20
77277;DHT22;66330;52.166;9.978;2023-04-25T11:10:30;13.40;41.70
77277;DHT22;66330;52.166;9.978;2023-04-25T11:12:57;13.10;42.30
77277;DHT22;66330;52.166;9.978;2023-04-25T11:15:23;12.80;42.90
77277;DHT22;66330;52.166;9.978;2023-04-25T11:17:51;12.50;43.70
77277;DHT22;66330;52.166;9.978;2023-04-25T11:20:17;12.30;44.40
77277;DHT22;66330;52.166;9.978;2023-04-25T11:22:45;12.10;44.70
77277;DHT22;66330;52.166;9.978;2023-04-25T11:25:12;12.10;45.20
77277;DHT22;66330;52.166;9.978;2023-04-25T11:27:58;12.00;44.80
77277;DHT22;66330;52.166;9.978;2023-04-25T11:30:25;12.10;45.30
77277;DHT22;66330;52.166;9.978;2023-04-25T11:32:51;12.00;45.60
77277;DHT22;66330;52.166;9.978;2023-04-25T11:35:18;12.00;44.90
77277;DHT22;66330;52.166;9.978;2023-04-25T11:37:44;12.00;45.00
77277;DHT22;66330;52.166;9.978;2023-04-25T11:40:10;12.00;45.20
77277;DHT22;66330;52.166;9.978;2023-04-25T11:42:38;12.00;45.00
77277;DHT22;66330;52.166;9.978;2023-04-25T11:45:04;12.00;45.50
77277;DHT22;66330;52.166;9.978;2023-04-25T11:47:31;12.10;45.70
77277;DHT22;66330;52.166;9.978;2023-04-25T11:50:04;12.10;45.70
77277;DHT22;66330;52.166;9.978;2023-04-25T11:52:41;12.20;45.70
77277;DHT22;66330;52.166;9.978;2023-04-25T11:55:13;12.50;46.00
77277;DHT22;66330;52.166;9.978;2023-04-25T11:57:40;13.00;46.00
77277;DHT22;66330;52.166;9.978;2023-04-25T12:02:43;13.20;44.60
77277;DHT22;66330;52.166;9.978;2023-04-25T12:05:10;13.00;44.00
77277;DHT22;66330;52.166;9.978;2023-04-25T12:07:36;12.90;44.10
77277;DHT22;66330;52.166;9.978;2023-04-25T12:10:08;12.80;44.10
77277;DHT22;66330;52.166;9.978;2023-04-25T12:12:35;12.60;43.70
77277;DHT22;66330;52.166;9.978;2023-04-25T12:17:38;12.40;44.50
77277;DHT22;66330;52.166;9.978;2023-04-25T12:20:14;12.30;44.30
77277;DHT22;66330;52.166;9.978;2023-04-25T12:22:41;12.10;44.90
77277;DHT22;66330;52.166;9.978;2023-04-25T12:25:13;11.90;45.00
77277;DHT22;66330;52.166;9.978;2023-04-25T12:27:39;11.80;45.80
77277;DHT22;66330;52.166;9.978;2023-04-25T12:30:09;11.80;46.00
77277;DHT22;66330;52.166;9.978;2023-04-25T12:32:36;11.20;46.60
77277;DHT22;66330;52.166;9.978;2023-04-25T12:35:03;11.10;47.10
77277;DHT22;66330;52.166;9.978;2023-04-25T12:37:29;11.10;47.50
77277;DHT22;66330;52.166;9.978;2023-04-25T12:39:55;11.10;47.80
77277;DHT22;66330;52.166;9.978;2023-04-25T12:42:20;11.20;48.00
77277;DHT22;66330;52.166;9.978;2023-04-25T12:44:46;11.30;48.10
77277;DHT22;66330;52.166;9.978;2023-04-25T12:47:11;11.50;48.00
77277;DHT22;66330;52.166;9.978;2023-04-25T12:49:37;11.90;48.30
77277;DHT22;66330;52.166;9.978;2023-04-25T12:52:03;12.40;48.40
77277;DHT22;66330;52.166;9.978;2023-04-25T12:54:28;13.70;49.20
77277;DHT22;66330;52.166;9.978;2023-04-25T12:56:54;15.40;48.10
77277;DHT22;66330;52.166;9.978;2023-04-25T12:59:20;16.70;45.90
77277;DHT22;66330;52.166;9.978;2023-04-25T13:01:46;18.10;44.10
77277;DHT22;66330;52.166;9.978;2023-04-25T13:04:12;19.00;41.70
77277;DHT22;66330;52.166;9.978;2023-04-25T13:06:37;19.70;39.90
77277;DHT22;66330;52.166;9.978;2023-04-25T13:09:03;20.20;38.00
77277;DHT22;66330;52.166;9.978;2023-04-25T13:11:29;20.00;35.40
77277;DHT22;66330;52.166;9.978;2023-04-25T13:13:55;19.70;35.10
77277;DHT22;66330;52.166;9.978;2023-04-25T13:16:21;19.20;35.40
77277;DHT22;66330;52.166;9.978;2023-04-25T13:18:47;18.70;35.30
77277;DHT22;66330;52.166;9.978;2023-04-25T13:21:13;18.30;35.30
77277;DHT22;66330;52.166;9.978;2023-04-25T13:23:39;18.00;35.50
77277;DHT22;66330;52.166;9.978;2023-04-25T13:26:04;17.60;35.10
77277;DHT22;66330;52.166;9.978;2023-04-25T13:28:30;17.20;35.50
77277;DHT22;66330;52.166;9.978;2023-04-25T13:30:56;16.90;35.90
77277;DHT22;66330;52.166;9.978;2023-04-25T13:33:21;16.60;36.40
77277;DHT22;66330;52.166;9.978;2023-04-25T13:35:49;16.40;37.10
77277;DHT22;66330;52.166;9.978;2023-04-25T13:38:20;16.10;37.50
77277;DHT22;66330;52.166;9.978;2023-04-25T13:40:46;15.90;37.60
77277;DHT22;66330;52.166;9.978;2023-04-25T13:43:12;15.50;37.80
77277;DHT22;66330;52.166;9.978;2023-04-25T13:45:37;15.20;37.90
77277;DHT22;66330;52.166;9.978;2023-04-25T13:48:03;14.80;38.20
77277;DHT22;66330;52.166;9.978;2023-04-25T13:50:28;14.30;38.60
77277;DHT22;66330;52.166;9.978;2023-04-25T13:52:54;13.90;39.20
77277;DHT22;66330;52.166;9.978;2023-04-25T13:55:20;13.40;40.10
77277;DHT22;66330;52.166;9.978;2023-04-25T13:57:45;13.00;41.00
77277;DHT22;66330;52.166;9.978;2023-04-25T14:00:11;12.70;41.90
77277;DHT22;66330;52.166;9.978;2023-04-25T14:02:37;12.50;42.60
77277;DHT22;66330;52.166;9.978;2023-04-25T14:05:04;12.30;43.00
77277;DHT22;66330;52.166;9.978;2023-04-25T14:07:30;12.20;43.20
77277;DHT22;66330;52.166;9.978;2023-04-25T14:09:55;12.30;44.00
77277;DHT22;66330;52.166;9.978;2023-04-25T14:12:22;12.50;44.40
77277;DHT22;66330;52.166;9.978;2023-04-25T14:14:48;12.70;45.10
77277;DHT22;66330;52.166;9.978;2023-04-25T14:17:14;14.00;46.00
77277;DHT22;66330;52.166;9.978;2023-04-25T14:19:39;14.40;45.80
77277;DHT22;66330;52.166;9.978;2023-04-25T14:22:08;15.50;45.50
77277;DHT22;66330;52.166;9.978;2023-04-25T14:24:34;15.70;44.00
77277;DHT22;66330;52.166;9.978;2023-04-25T14:27:00;16.40;43.00
77277;DHT22;66330;52.166;9.978;2023-04-25T14:29:26;16.60;42.10
77277;DHT22;66330;52.166;9.978;2023-04-25T14:31:51;16.60;41.10
77277;DHT22;66330;52.166;9.978;2023-04-25T14:34:17;16.40;40.30
77277;DHT22;66330;52.166;9.978;2023-04-25T14:36:43;16.10;39.70
77277;DHT22;66330;52.166;9.978;2023-04-25T14:39:09;15.80;40.50
77277;DHT22;66330;52.166;9.978;2023-04-25T14:41:35;15.60;40.40
77277;DHT22;66330;52.166;9.978;2023-04-25T14:44:00;15.20;40.30
77277;DHT22;66330;52.166;9.978;2023-04-25T14:46:26;14.70;41.10
77277;DHT22;66330;52.166;9.978;2023-04-25T14:48:52;14.30;41.80
77277;DHT22;66330;52.166;9.978;2023-04-25T14:51:18;13.90;43.00
77277;DHT22;66330;52.166;9.978;2023-04-25T14:53:43;13.60;44.10
77277;DHT22;66330;52.166;9.978;2023-04-25T14:56:09;13.30;44.80
77277;DHT22;66330;52.166;9.978;2023-04-25T14:58:35;13.10;45.40
77277;DHT22;66330;52.166;9.978;2023-04-25T15:01:00;12.90;45.80
77277;DHT22;66330;52.166;9.978;2023-04-25T15:03:26;12.80;46.20
77277;DHT22;66330;52.166;9.978;2023-04-25T15:05:54;12.80;46.60
77277;DHT22;66330;52.166;9.978;2023-04-25T15:08:20;12.50;46.80
77277;DHT22;66330;52.166;9.978;2023-04-25T15:10:46;12.60;47.20
77277;DHT22;66330;52.166;9.978;2023-04-25T15:13:12;12.50;47.30
77277;DHT22;66330;52.166;9.978;2023-04-25T15:15:37;12.50;47.10
77277;DHT22;66330;52.166;9.978;2023-04-25T15:18:03;12.60;47.00
77277;DHT22;66330;52.166;9.978;2023-04-25T15:20:29;12.60;47.50
77277;DHT22;66330;52.166;9.978;2023-04-25T15:22:55;12.70;47.30
77277;DHT22;66330;52.166;9.978;2023-04-25T15:25:20;12.80;47.20
77277;DHT22;66330;52.166;9.978;2023-04-25T15:27:46;12.80;46.60
77277;DHT22;66330;52.166;9.978;2023-04-25T15:30:16;13.40;47.40
77277;DHT22;66330;52.166;9.978;2023-04-25T15:32:46;13.00;47.10
77277;DHT22;66330;52.166;9.978;2023-04-25T15:35:12;13.20;47.00
77277;DHT22;66330;52.166;9.978;2023-04-25T15:37:38;13.80;47.10
77277;DHT22;66330;52.166;9.978;2023-04-25T15:40:08;13.40;46.70
77277;DHT22;66330;52.166;9.978;2023-04-25T15:42:38;13.50;46.20
77277;DHT22;66330;52.166;9.978;2023-04-25T15:45:06;13.40;45.70